createdAt,value
2018-07-25T00:00:19.911Z,13.63
2018-07-25T00:02:48.507Z,12.33
2018-07-25T00:05:17.099Z,12.40
2018-07-25T00:07:45.653Z,12.13
2018-07-25T00:10:14.258Z,12.23
2018-07-25T00:12:43.044Z,11.90
2018-07-25T00:15:11.746Z,11.73
2018-07-25T00:17:40.507Z,10.87
2018-07-25T00:20:09.179Z,12.63
2018-07-25T00:22:37.974Z,12.50
2018-07-25T00:25:06.647Z,12.20
2018-07-25T00:27:35.390Z,11.60
2018-07-25T00:30:04.364Z,12.57
2018-07-25T00:32:34.343Z,12.50
2018-07-25T00:35:03.094Z,11.67
2018-07-25T00:37:31.679Z,12.23
2018-07-25T00:40:00.728Z,12.63
2018-07-25T00:42:29.365Z,12.67
2018-07-25T00:44:58.108Z,12.43
2018-07-25T00:47:27.539Z,12.40
2018-07-25T00:49:56.814Z,10.90
2018-07-25T00:52:25.392Z,12.37
2018-07-25T00:54:54.039Z,12.30
2018-07-25T00:57:22.648Z,11.90
2018-07-25T00:59:51.317Z,13.83
2018-07-25T01:02:19.884Z,12.80
2018-07-25T01:04:51.269Z,13.17
2018-07-25T01:07:19.963Z,13.23
2018-07-25T01:09:48.567Z,13.55
2018-07-25T01:12:17.837Z,13.10
2018-07-25T01:14:46.424Z,13.10
2018-07-25T01:17:15.053Z,12.37
2018-07-25T01:19:43.730Z,13.90
2018-07-25T01:22:12.477Z,12.50
2018-07-25T01:24:41.153Z,12.60
2018-07-25T01:27:09.920Z,13.30
2018-07-25T01:29:38.550Z,13.27
2018-07-25T01:32:07.349Z,12.45
2018-07-25T01:34:36.237Z,13.20
2018-07-25T01:37:04.948Z,12.43
2018-07-25T01:39:33.553Z,12.10
2018-07-25T01:42:02.456Z,12.93
2018-07-25T01:44:31.792Z,12.73
2018-07-25T01:47:00.480Z,12.63
2018-07-25T01:49:30.097Z,12.37
2018-07-25T01:51:58.887Z,12.73
2018-07-25T01:54:27.548Z,12.60
2018-07-25T01:56:56.430Z,13.50
2018-07-25T01:59:28.103Z,12.33
2018-07-25T02:01:58.358Z,12.90
2018-07-25T02:04:27.388Z,14.00
2018-07-25T02:06:56.010Z,12.70
2018-07-25T02:09:24.836Z,12.47
2018-07-25T02:11:53.445Z,13.23
2018-07-25T02:14:22.201Z,13.33
2018-07-25T02:16:50.844Z,12.30
2018-07-25T02:19:20.366Z,12.97
2018-07-25T02:21:48.979Z,13.00
2018-07-25T02:24:17.693Z,14.00
2018-07-25T02:26:46.693Z,12.50
2018-07-25T02:29:15.345Z,14.30
2018-07-25T02:31:43.940Z,13.23
2018-07-25T02:34:17.888Z,13.40
2018-07-25T02:36:47.234Z,13.93
2018-07-25T02:39:15.889Z,13.30
2018-07-25T02:41:45.264Z,13.77
2018-07-25T02:44:14.391Z,13.47
2018-07-25T02:46:43.108Z,13.95
2018-07-25T02:49:11.758Z,13.30
2018-07-25T02:51:40.508Z,13.10
2018-07-25T02:54:09.888Z,14.27
2018-07-25T02:56:38.468Z,12.83
2018-07-25T02:59:07.238Z,13.53
2018-07-25T03:01:36.170Z,12.70
2018-07-25T03:04:04.801Z,13.80
2018-07-25T03:06:34.288Z,12.53
2018-07-25T03:09:04.145Z,13.00
2018-07-25T03:11:32.670Z,13.23
2018-07-25T03:14:01.625Z,12.55
2018-07-25T03:16:30.320Z,14.00
2018-07-25T03:18:58.911Z,14.30
2018-07-25T03:21:27.529Z,14.10
2018-07-25T03:23:56.111Z,12.80
2018-07-25T03:26:24.771Z,13.37
2018-07-25T03:28:53.487Z,13.70
2018-07-25T03:31:22.317Z,13.00
2018-07-25T03:33:50.947Z,12.87
2018-07-25T03:36:19.628Z,13.72
2018-07-25T03:38:48.186Z,13.20
2018-07-25T03:41:16.832Z,14.70
2018-07-25T03:43:45.490Z,14.77
2018-07-25T03:46:14.229Z,13.70
2018-07-25T03:48:42.907Z,13.17
2018-07-25T03:51:11.612Z,13.08
2018-07-25T03:53:40.227Z,13.73
2018-07-25T03:56:08.937Z,13.43
2018-07-25T03:58:39.166Z,35.73
2018-07-25T04:01:08.420Z,24.50
2018-07-25T04:03:37.293Z,13.67
2018-07-25T04:06:05.923Z,13.03
2018-07-25T04:08:34.736Z,14.23
2018-07-25T04:11:03.438Z,13.05
2018-07-25T04:13:32.157Z,13.03
2018-07-25T04:16:00.783Z,13.10
2018-07-25T04:18:29.397Z,12.40
2018-07-25T04:20:58.042Z,13.43
2018-07-25T04:23:27.439Z,15.72
2018-07-25T04:25:56.129Z,13.40
2018-07-25T04:28:24.760Z,13.40
2018-07-25T04:30:54.068Z,13.47
2018-07-25T04:33:22.723Z,12.73
2018-07-25T04:35:51.364Z,12.60
2018-07-25T04:38:20.540Z,13.93
2018-07-25T04:40:49.208Z,12.93
2018-07-25T04:43:17.983Z,13.67
2018-07-25T04:45:46.645Z,40.63
2018-07-25T04:48:15.462Z,13.47
2018-07-25T04:50:44.172Z,12.40
2018-07-25T04:53:12.904Z,14.23
2018-07-25T04:55:42.206Z,13.03
2018-07-25T04:58:11.580Z,12.70
2018-07-25T05:00:40.346Z,13.53
2018-07-25T05:03:08.984Z,12.53
2018-07-25T05:05:38.170Z,12.13
2018-07-25T05:08:06.943Z,12.53
2018-07-25T05:10:35.585Z,11.50
2018-07-25T05:13:05.011Z,11.70
2018-07-25T05:15:33.720Z,12.67
2018-07-25T05:18:02.339Z,12.27
2018-07-25T05:20:30.900Z,11.00
2018-07-25T05:22:59.624Z,11.17
2018-07-25T05:25:28.346Z,10.70
2018-07-25T05:27:57.159Z,10.72
2018-07-25T05:30:25.966Z,11.77
2018-07-25T05:32:54.658Z,11.12
2018-07-25T05:35:23.316Z,9.73
2018-07-25T05:37:52.690Z,9.50
2018-07-25T05:40:21.376Z,9.63
2018-07-25T05:42:50.114Z,9.30
2018-07-25T05:45:18.785Z,9.83
2018-07-25T05:47:47.464Z,10.53
2018-07-25T05:50:16.221Z,9.80
2018-07-25T05:52:44.875Z,9.33
2018-07-25T05:55:13.706Z,9.93
2018-07-25T05:57:42.371Z,8.57
2018-07-25T06:00:11.267Z,9.27
2018-07-25T06:02:40.682Z,9.40
2018-07-25T06:05:09.910Z,9.60
2018-07-25T06:07:38.626Z,9.07
2018-07-25T06:10:07.359Z,9.83
2018-07-25T06:12:36.070Z,9.23
2018-07-25T06:15:05.335Z,8.83
2018-07-25T06:17:33.915Z,9.77
2018-07-25T06:20:02.557Z,8.70
2018-07-25T06:22:31.252Z,9.20
2018-07-25T06:24:59.926Z,9.27
2018-07-25T06:27:28.732Z,7.83
2018-07-25T06:29:57.441Z,8.17
2018-07-25T06:32:26.237Z,7.95
2018-07-25T06:34:55.482Z,8.50
2018-07-25T06:37:24.796Z,8.10
2018-07-25T06:39:54.096Z,8.23
2018-07-25T06:42:22.792Z,7.80
2018-07-25T06:44:51.437Z,7.90
2018-07-25T06:47:20.125Z,8.03
2018-07-25T06:49:48.910Z,8.10
2018-07-25T06:52:18.175Z,8.70
2018-07-25T06:54:46.940Z,8.10
2018-07-25T06:57:15.591Z,8.13
2018-07-25T06:59:44.351Z,8.03
2018-07-25T07:02:13.043Z,8.20
2018-07-25T07:04:41.637Z,7.33
2018-07-25T07:07:10.415Z,7.47
2018-07-25T07:09:39.780Z,7.00
2018-07-25T07:12:08.605Z,6.90
2018-07-25T07:14:37.176Z,7.40
2018-07-25T07:17:05.799Z,6.47
2018-07-25T07:19:34.644Z,6.10
2018-07-25T07:22:03.946Z,6.10
2018-07-25T07:24:32.675Z,6.57
2018-07-25T07:27:01.322Z,6.50
2018-07-25T07:29:29.957Z,6.17
2018-07-25T07:31:58.712Z,6.07
2018-07-25T07:34:27.337Z,5.53
2018-07-25T07:36:56.118Z,5.80
2018-07-25T07:39:24.912Z,5.53
2018-07-25T07:41:53.610Z,5.57
2018-07-25T07:44:22.920Z,5.62
2018-07-25T07:46:52.504Z,6.00
2018-07-25T07:49:21.270Z,5.58
2018-07-25T07:51:50.016Z,4.50
2018-07-25T07:54:18.821Z,5.22
2018-07-25T07:56:47.466Z,5.05
2018-07-25T07:59:16.282Z,5.30
2018-07-25T08:01:44.913Z,5.20
2018-07-25T08:04:14.387Z,5.03
2018-07-25T08:06:43.005Z,4.90
2018-07-25T08:09:13.306Z,3.90
2018-07-25T08:11:42.631Z,3.97
2018-07-25T08:14:11.373Z,4.03
2018-07-25T08:16:40.876Z,4.30
2018-07-25T08:19:11.494Z,4.37
2018-07-25T08:21:40.235Z,3.70
2018-07-25T08:24:09.027Z,3.63
2018-07-25T08:26:37.831Z,3.77
2018-07-25T08:29:06.952Z,3.52
2018-07-25T08:31:36.413Z,3.37
2018-07-25T08:34:05.026Z,3.10
2018-07-25T08:36:33.686Z,3.00
2018-07-25T08:39:02.328Z,2.60
2018-07-25T08:41:31.218Z,2.65
2018-07-25T08:44:00.195Z,2.80
2018-07-25T08:46:28.841Z,2.35
2018-07-25T08:48:57.505Z,2.35
2018-07-25T08:51:26.161Z,2.60
2018-07-25T08:53:54.926Z,2.42
2018-07-25T08:56:23.590Z,2.12
2018-07-25T08:58:53.201Z,2.27
2018-07-25T09:01:21.912Z,2.05
2018-07-25T09:03:50.637Z,2.17
2018-07-25T09:06:19.375Z,2.02
2018-07-25T09:08:48.031Z,1.77
2018-07-25T09:11:20.827Z,1.80
2018-07-25T09:13:49.438Z,1.70
2018-07-25T09:16:18.235Z,1.60
2018-07-25T09:18:47.603Z,1.98
2018-07-25T09:21:16.811Z,1.55
2018-07-25T09:23:45.559Z,1.60
2018-07-25T09:26:14.218Z,1.50
2018-07-25T09:28:42.870Z,1.22
2018-07-25T09:31:11.613Z,1.37
2018-07-25T09:33:40.425Z,1.70
2018-07-25T09:36:09.152Z,1.30
2018-07-25T09:38:38.637Z,1.32
2018-07-25T09:41:07.469Z,1.20
2018-07-25T09:43:35.992Z,1.05
2018-07-25T09:46:04.748Z,1.17
2018-07-25T09:48:33.390Z,1.02
2018-07-25T09:51:02.004Z,0.93
2018-07-25T09:53:30.732Z,1.10
2018-07-25T09:55:59.371Z,1.13
2018-07-25T09:58:28.354Z,0.88
2018-07-25T10:00:57.187Z,0.90
2018-07-25T10:03:26.535Z,0.80
2018-07-25T10:05:55.477Z,0.85
2018-07-25T10:08:24.185Z,1.25
2018-07-25T10:10:53.508Z,1.37
2018-07-25T10:13:22.171Z,0.90
2018-07-25T10:15:50.868Z,1.00
2018-07-25T10:18:19.613Z,0.90
2018-07-25T10:20:48.394Z,1.10
2018-07-25T10:23:17.559Z,1.05
2018-07-25T10:25:46.840Z,0.72
2018-07-25T10:28:15.526Z,0.80
2018-07-25T10:30:44.302Z,0.70
2018-07-25T10:33:13.599Z,0.90
2018-07-25T10:35:42.391Z,0.90
2018-07-25T10:38:11.046Z,0.80
2018-07-25T10:40:39.649Z,0.90
2018-07-25T10:43:08.381Z,1.10
2018-07-25T10:45:37.968Z,1.15
2018-07-25T10:48:06.752Z,1.57
2018-07-25T10:50:36.132Z,1.80
2018-07-25T10:53:04.931Z,1.90
2018-07-25T10:55:33.594Z,2.15
2018-07-25T10:59:35.084Z,2.58
2018-07-25T11:02:03.842Z,2.55
2018-07-25T11:04:32.686Z,2.30
2018-07-25T11:07:01.366Z,3.12
2018-07-25T11:09:30.443Z,2.85
2018-07-25T11:11:59.648Z,2.83
2018-07-25T11:14:28.422Z,3.50
2018-07-25T11:16:57.185Z,3.47
2018-07-25T11:19:26.012Z,3.60
2018-07-25T11:21:54.693Z,3.67
2018-07-25T11:24:23.308Z,3.60
2018-07-25T11:26:51.963Z,4.13
2018-07-25T11:29:21.453Z,3.60
2018-07-25T11:31:50.290Z,4.43
2018-07-25T11:34:19.149Z,3.93
2018-07-25T11:36:47.883Z,3.57
2018-07-25T11:39:16.686Z,3.00
2018-07-25T11:41:45.418Z,2.83
2018-07-25T11:44:14.228Z,3.42
2018-07-25T11:46:43.007Z,3.80
2018-07-25T11:49:11.713Z,3.43
2018-07-25T11:51:40.400Z,3.10
2018-07-25T11:54:09.203Z,3.20
2018-07-25T11:56:37.947Z,3.07
2018-07-25T11:59:07.247Z,5.47
2018-07-25T12:01:36.308Z,3.80
2018-07-25T12:04:04.997Z,3.17
2018-07-25T12:06:34.879Z,3.13
2018-07-25T12:09:04.017Z,2.90
2018-07-25T12:11:33.054Z,3.33
2018-07-25T12:14:01.706Z,3.13
2018-07-25T12:16:30.536Z,2.57
2018-07-25T12:18:59.325Z,4.80
2018-07-25T12:25:16.832Z,2.97
2018-07-25T12:27:45.563Z,2.90
2018-07-25T12:30:14.397Z,2.30
2018-07-25T12:32:43.063Z,3.13
2018-07-25T12:35:11.825Z,2.57
2018-07-25T12:37:40.475Z,2.77
2018-07-25T12:40:09.768Z,3.50
2018-07-25T12:42:38.557Z,2.80
2018-07-25T12:45:07.295Z,2.40
2018-07-25T12:47:36.077Z,2.73
2018-07-25T12:50:05.018Z,2.60
2018-07-25T12:52:33.877Z,3.03
2018-07-25T12:55:02.562Z,3.03
2018-07-25T12:57:31.299Z,3.07
2018-07-25T13:00:00.059Z,3.03
2018-07-25T13:02:28.817Z,2.60
2018-07-25T13:04:58.137Z,3.60
2018-07-25T13:07:26.822Z,3.62
2018-07-25T13:09:55.514Z,4.50
2018-07-25T13:12:24.202Z,3.00
2018-07-25T13:14:52.892Z,3.37
2018-07-25T13:17:21.548Z,4.13
2018-07-25T13:19:50.308Z,3.40
2018-07-25T13:22:18.939Z,2.97
2018-07-25T13:24:47.758Z,3.20
2018-07-25T13:27:17.178Z,3.50
2018-07-25T13:29:45.813Z,2.50
2018-07-25T13:32:14.482Z,2.83
2018-07-25T13:34:43.877Z,3.30
2018-07-25T13:37:12.757Z,3.30
2018-07-25T13:39:41.638Z,3.17
2018-07-25T13:42:10.823Z,2.83
2018-07-25T13:44:39.629Z,3.40
2018-07-25T13:47:08.294Z,3.40
2018-07-25T13:49:37.019Z,2.90
2018-07-25T13:52:05.730Z,3.23
2018-07-25T13:54:34.432Z,2.87
2018-07-25T13:57:03.064Z,3.63
2018-07-25T13:59:31.700Z,2.67
2018-07-25T14:02:01.240Z,2.77
2018-07-25T14:04:30.267Z,2.70
2018-07-25T14:06:58.972Z,2.93
2018-07-25T14:09:27.642Z,2.70
2018-07-25T14:11:56.338Z,3.70
2018-07-25T14:14:25.317Z,3.47
2018-07-25T14:16:53.974Z,3.20
2018-07-25T14:19:22.594Z,3.57
2018-07-25T14:21:51.425Z,4.10
2018-07-25T14:24:20.245Z,2.90
2018-07-25T14:26:49.174Z,3.67
2018-07-25T14:29:17.813Z,3.47
2018-07-25T14:31:46.467Z,3.33
2018-07-25T14:34:15.170Z,3.47
2018-07-25T14:36:43.754Z,3.80
2018-07-25T14:39:12.852Z,3.63
2018-07-25T14:41:41.917Z,3.20
2018-07-25T14:44:11.149Z,3.70
2018-07-25T14:46:39.855Z,3.23
2018-07-25T14:49:08.419Z,3.43
2018-07-25T14:51:37.073Z,3.80
2018-07-25T14:54:05.741Z,2.87
2018-07-25T14:56:34.394Z,3.37
2018-07-25T14:59:03.067Z,3.40
2018-07-25T15:01:31.734Z,4.17
2018-07-25T15:04:01.098Z,3.73
2018-07-25T15:06:29.893Z,3.67
2018-07-25T15:09:00.388Z,3.50
2018-07-25T15:11:29.354Z,3.73
2018-07-25T15:13:58.123Z,3.50
2018-07-25T15:16:27.491Z,3.80
2018-07-25T15:18:56.096Z,3.47
2018-07-25T15:21:25.379Z,3.50
2018-07-25T15:23:59.143Z,3.60
2018-07-25T15:26:28.456Z,3.87
2018-07-25T15:28:57.496Z,3.87
2018-07-25T15:31:26.108Z,3.47
2018-07-25T15:33:54.811Z,3.70
2018-07-25T15:36:42.031Z,3.70
2018-07-25T15:39:20.430Z,3.47
2018-07-25T15:41:49.901Z,4.23
2018-07-25T15:44:19.447Z,4.30
2018-07-25T15:46:48.247Z,3.67
2018-07-25T15:49:16.932Z,4.00
2018-07-25T15:51:45.625Z,3.80
2018-07-25T15:54:14.379Z,4.40
2018-07-25T15:56:42.985Z,3.97
2018-07-25T15:59:11.629Z,4.27
2018-07-25T16:01:40.342Z,4.07
2018-07-25T16:04:09.603Z,3.60
2018-07-25T16:06:38.298Z,3.93
2018-07-25T16:09:10.618Z,4.67
2018-07-25T16:11:39.650Z,4.13
2018-07-25T16:14:08.808Z,4.10
2018-07-25T16:16:37.647Z,4.13
2018-07-25T16:19:06.595Z,4.40
2018-07-25T16:21:35.234Z,4.50
2018-07-25T16:24:04.662Z,4.50
2018-07-25T16:26:33.385Z,4.70
2018-07-25T16:29:03.926Z,3.63
2018-07-25T16:31:34.955Z,4.70
2018-07-25T16:34:04.059Z,4.97
2018-07-25T16:36:32.813Z,4.33
2018-07-25T16:39:02.299Z,4.65
2018-07-25T16:41:30.919Z,4.37
2018-07-25T16:43:59.580Z,4.15
2018-07-25T16:46:28.398Z,4.30
2018-07-25T16:48:57.013Z,4.37
2018-07-25T16:51:25.689Z,3.83
2018-07-25T16:53:54.357Z,4.97
2018-07-25T16:56:22.990Z,4.03
2018-07-25T16:58:51.610Z,3.80
2018-07-25T17:01:20.383Z,3.90
2018-07-25T17:03:49.023Z,3.37
2018-07-25T17:06:17.778Z,3.20
2018-07-25T17:08:46.354Z,3.33
2018-07-25T17:11:14.991Z,2.30
2018-07-25T17:13:43.664Z,2.50
2018-07-25T17:16:13.240Z,2.57
2018-07-25T17:18:41.850Z,2.57
2018-07-25T17:21:10.634Z,2.50
2018-07-25T17:23:39.323Z,2.70
2018-07-25T17:26:08.079Z,2.50
2018-07-25T17:28:37.428Z,2.23
2018-07-25T17:31:06.638Z,1.87
2018-07-25T17:33:35.390Z,2.22
2018-07-25T17:36:04.073Z,2.90
2018-07-25T17:38:32.763Z,2.47
2018-07-25T17:41:01.396Z,2.80
2018-07-25T17:43:30.049Z,2.87
2018-07-25T17:45:58.834Z,2.43
2018-07-25T17:48:27.464Z,3.17
2018-07-25T17:50:56.119Z,2.60
2018-07-25T17:53:24.758Z,2.63
2018-07-25T17:55:53.449Z,2.02
2018-07-25T17:58:22.205Z,2.40
2018-07-25T18:00:51.419Z,1.90
2018-07-25T18:03:20.415Z,2.30
2018-07-25T18:05:49.188Z,2.40
2018-07-25T18:08:18.555Z,5.23
2018-07-25T18:10:47.350Z,2.07
2018-07-25T18:14:24.236Z,2.17
2018-07-25T18:16:53.213Z,2.10
2018-07-25T18:19:22.389Z,2.30
2018-07-25T18:21:51.491Z,2.20
2018-07-25T18:24:21.376Z,1.80
2018-07-25T18:26:50.090Z,2.43
2018-07-25T18:29:19.164Z,2.33
2018-07-25T18:31:48.749Z,2.67
2018-07-25T18:34:17.770Z,2.37
2018-07-25T18:36:46.955Z,2.47
2018-07-25T18:39:15.940Z,2.43
2018-07-25T18:41:44.710Z,2.57
2018-07-25T18:44:14.011Z,2.25
2018-07-25T18:46:44.874Z,2.10
2018-07-25T18:49:14.339Z,3.00
2018-07-25T18:51:43.400Z,2.13
2018-07-25T18:54:12.394Z,2.30
2018-07-25T18:56:41.734Z,1.90
2018-07-25T18:59:11.290Z,2.20
2018-07-25T19:01:40.316Z,2.33
2018-07-25T19:04:09.218Z,2.17
2018-07-25T19:06:38.583Z,2.60
2018-07-25T19:09:13.138Z,2.07
2018-07-25T19:11:43.053Z,2.20
2018-07-25T19:14:16.855Z,2.90
2018-07-25T19:16:46.251Z,2.57
2018-07-25T19:19:16.519Z,2.40
2018-07-25T19:21:45.569Z,2.43
2018-07-25T19:24:14.618Z,2.90
2018-07-25T19:26:43.603Z,2.30
2018-07-25T19:29:12.396Z,2.50
2018-07-25T19:31:41.250Z,2.50
2018-07-25T19:34:10.025Z,2.50
2018-07-25T19:36:38.943Z,2.20
2018-07-25T19:39:10.251Z,2.90
2018-07-25T19:41:39.848Z,3.10
2018-07-25T19:44:09.584Z,2.70
2018-07-25T19:46:38.665Z,2.30
2018-07-25T19:49:07.670Z,3.07
2018-07-25T19:51:36.708Z,3.20
2018-07-25T19:54:05.905Z,2.70
2018-07-25T19:56:34.755Z,3.00
2018-07-25T19:59:03.994Z,2.93
2018-07-25T20:01:33.165Z,2.70
2018-07-25T20:04:02.342Z,2.90
2018-07-25T20:06:31.686Z,3.00
2018-07-25T20:09:00.745Z,2.97
2018-07-25T20:11:29.920Z,2.60
2018-07-25T20:14:04.242Z,5.75
2018-07-25T20:16:33.249Z,3.13
2018-07-25T20:19:02.610Z,2.90
2018-07-25T20:21:32.065Z,3.10
2018-07-25T20:24:01.341Z,3.33
2018-07-25T20:26:30.229Z,3.13
2018-07-25T20:28:59.625Z,3.45
2018-07-25T20:31:28.827Z,3.60
2018-07-25T20:33:58.216Z,3.30
2018-07-25T20:36:27.040Z,3.80
2018-07-25T20:38:56.132Z,3.00
2018-07-25T20:41:25.299Z,2.90
2018-07-25T20:43:54.124Z,3.63
2018-07-25T20:46:23.236Z,3.50
2018-07-25T20:48:52.401Z,3.00
2018-07-25T20:51:22.436Z,3.00
2018-07-25T20:53:51.775Z,3.70
2018-07-25T20:56:21.206Z,3.57
2018-07-25T20:58:50.039Z,2.77
2018-07-25T21:01:19.275Z,3.60
2018-07-25T21:03:48.485Z,3.50
2018-07-25T21:06:17.680Z,3.63
2018-07-25T21:08:47.029Z,3.10
2018-07-25T21:11:16.175Z,3.30
2018-07-25T21:13:45.424Z,3.67
2018-07-25T21:16:14.304Z,3.27
2018-07-25T21:18:43.034Z,2.93
2018-07-25T21:21:12.093Z,3.90
2018-07-25T21:23:40.927Z,3.77
2018-07-25T21:26:10.504Z,3.80
2018-07-25T21:28:39.418Z,3.53
2018-07-25T21:31:08.944Z,3.63
2018-07-25T21:33:37.615Z,3.77
2018-07-25T21:36:06.520Z,3.67
2018-07-25T21:38:35.917Z,3.30
2018-07-25T21:41:04.904Z,3.67
2018-07-25T21:43:33.645Z,3.70
2018-07-25T21:46:03.369Z,4.10
2018-07-25T21:48:32.565Z,4.37
2018-07-25T21:51:01.991Z,3.60
2018-07-25T21:53:30.976Z,4.17
2018-07-25T21:55:59.875Z,4.27
2018-07-25T21:58:28.551Z,3.60
2018-07-25T22:00:58.671Z,4.03
2018-07-25T22:03:27.695Z,4.10
2018-07-25T22:05:57.025Z,4.03
2018-07-25T22:08:26.286Z,4.33
2018-07-25T22:10:55.476Z,4.03
2018-07-25T22:13:24.466Z,3.87
2018-07-25T22:15:53.965Z,4.03
2018-07-25T22:18:23.237Z,4.70
2018-07-25T22:20:52.068Z,5.23
2018-07-25T22:23:20.739Z,4.58
2018-07-25T22:25:49.965Z,4.60
2018-07-25T22:28:19.332Z,6.20
2018-07-25T22:30:48.303Z,5.07
2018-07-25T22:33:17.111Z,5.12
2018-07-25T22:35:45.784Z,5.47
2018-07-25T22:38:15.275Z,5.60
2018-07-25T22:40:44.318Z,5.70
2018-07-25T22:43:12.922Z,5.17
2018-07-25T22:45:41.889Z,5.85
2018-07-25T22:48:11.066Z,5.70
2018-07-25T22:50:40.080Z,5.10
2018-07-25T22:53:09.068Z,6.17
2018-07-25T22:55:37.776Z,6.30
2018-07-25T22:58:07.000Z,6.33
2018-07-25T23:00:35.946Z,6.00
2018-07-25T23:03:04.661Z,5.37
2018-07-25T23:05:33.441Z,5.35
2018-07-25T23:08:02.290Z,5.53
2018-07-25T23:10:31.215Z,6.27
2018-07-25T23:12:59.880Z,5.87
2018-07-25T23:15:28.635Z,6.07
2018-07-25T23:17:57.351Z,6.17
2018-07-25T23:20:26.866Z,5.57
2018-07-25T23:22:58.001Z,6.17
2018-07-25T23:25:27.330Z,5.30
2018-07-25T23:27:57.455Z,5.80
2018-07-25T23:30:27.374Z,6.47
2018-07-25T23:32:56.156Z,6.43
2018-07-25T23:35:25.136Z,6.07
2018-07-25T23:37:53.795Z,6.23
2018-07-25T23:40:22.589Z,6.57
2018-07-25T23:42:52.012Z,5.80
2018-07-25T23:45:21.070Z,6.40
2018-07-25T23:47:49.830Z,5.90
2018-07-25T23:50:18.555Z,5.77
2018-07-25T23:52:47.946Z,6.60
2018-07-25T23:55:16.590Z,6.87
2018-07-25T23:57:46.522Z,6.33
